sensor_id;sensor_type;location;lat;lon;timestamp;P1;durP1;ratioP1;P2;durP2;ratioP2
74342;SDS011;62767;50.300;8.070;2022-08-25T00:02:25;5.72;;;1.70;;
74342;SDS011;62767;50.300;8.070;2022-08-25T00:04:50;4.30;;;1.70;;
74342;SDS011;62767;50.300;8.070;2022-08-25T00:07:16;2.42;;;1.40;;
74342;SDS011;62767;50.300;8.070;2022-08-25T00:09:42;4.63;;;1.70;;
74342;SDS011;62767;50.300;8.070;2022-08-25T00:12:07;4.40;;;1.65;;
74342;SDS011;62767;50.300;8.070;2022-08-25T00:14:34;3.45;;;1.40;;
74342;SDS011;62767;50.300;8.070;2022-08-25T00:17:01;2.90;;;1.73;;
74342;SDS011;62767;50.300;8.070;2022-08-25T00:19:28;4.13;;;1.83;;
74342;SDS011;62767;50.300;8.070;2022-08-25T00:21:59;4.20;;;1.70;;
74342;SDS011;62767;50.300;8.070;2022-08-25T00:24:25;5.72;;;1.83;;
74342;SDS011;62767;50.300;8.070;2022-08-25T00:26:52;9.10;;;1.80;;
74342;SDS011;62767;50.300;8.070;2022-08-25T00:29:21;2.95;;;1.65;;
74342;SDS011;62767;50.300;8.070;2022-08-25T00:31:50;3.63;;;2.00;;
74342;SDS011;62767;50.300;8.070;2022-08-25T00:34:18;3.20;;;1.77;;
74342;SDS011;62767;50.300;8.070;2022-08-25T00:36:47;2.78;;;1.77;;
74342;SDS011;62767;50.300;8.070;2022-08-25T00:39:16;3.60;;;1.65;;
74342;SDS011;62767;50.300;8.070;2022-08-25T00:41:45;4.13;;;1.70;;
74342;SDS011;62767;50.300;8.070;2022-08-25T00:44:13;3.63;;;1.77;;
74342;SDS011;62767;50.300;8.070;2022-08-25T00:46:43;3.75;;;1.63;;
74342;SDS011;62767;50.300;8.070;2022-08-25T00:51:43;3.70;;;1.80;;
74342;SDS011;62767;50.300;8.070;2022-08-25T00:54:31;5.78;;;1.75;;
74342;SDS011;62767;50.300;8.070;2022-08-25T00:57:02;4.07;;;2.00;;
74342;SDS011;62767;50.300;8.070;2022-08-25T00:59:29;3.95;;;1.58;;
74342;SDS011;62767;50.300;8.070;2022-08-25T01:01:56;4.70;;;1.80;;
74342;SDS011;62767;50.300;8.070;2022-08-25T01:04:23;8.00;;;1.73;;
74342;SDS011;62767;50.300;8.070;2022-08-25T01:06:49;2.03;;;1.30;;
74342;SDS011;62767;50.300;8.070;2022-08-25T01:09:15;3.38;;;1.40;;
74342;SDS011;62767;50.300;8.070;2022-08-25T01:11:42;4.28;;;1.83;;
74342;SDS011;62767;50.300;8.070;2022-08-25T01:14:09;2.67;;;1.90;;
74342;SDS011;62767;50.300;8.070;2022-08-25T01:16:39;3.40;;;1.67;;
74342;SDS011;62767;50.300;8.070;2022-08-25T01:19:07;4.20;;;1.90;;
74342;SDS011;62767;50.300;8.070;2022-08-25T01:21:39;3.22;;;1.70;;
74342;SDS011;62767;50.300;8.070;2022-08-25T01:26:58;2.63;;;1.45;;
74342;SDS011;62767;50.300;8.070;2022-08-25T01:29:25;4.05;;;1.73;;
74342;SDS011;62767;50.300;8.070;2022-08-25T01:31:55;3.42;;;1.77;;
74342;SDS011;62767;50.300;8.070;2022-08-25T01:34:26;3.05;;;1.70;;
74342;SDS011;62767;50.300;8.070;2022-08-25T01:36:56;4.93;;;1.88;;
74342;SDS011;62767;50.300;8.070;2022-08-25T01:39:23;2.42;;;1.58;;
74342;SDS011;62767;50.300;8.070;2022-08-25T01:41:58;6.82;;;1.70;;
74342;SDS011;62767;50.300;8.070;2022-08-25T01:44:27;4.53;;;1.63;;
74342;SDS011;62767;50.300;8.070;2022-08-25T01:46:54;6.22;;;1.75;;
74342;SDS011;62767;50.300;8.070;2022-08-25T01:49:19;4.80;;;1.75;;
74342;SDS011;62767;50.300;8.070;2022-08-25T01:51:47;4.10;;;2.17;;
74342;SDS011;62767;50.300;8.070;2022-08-25T01:54:16;4.80;;;1.80;;
74342;SDS011;62767;50.300;8.070;2022-08-25T01:56:42;3.47;;;1.40;;
74342;SDS011;62767;50.300;8.070;2022-08-25T01:59:08;4.10;;;1.60;;
74342;SDS011;62767;50.300;8.070;2022-08-25T02:01:33;2.60;;;1.35;;
74342;SDS011;62767;50.300;8.070;2022-08-25T02:03:59;2.90;;;1.58;;
74342;SDS011;62767;50.300;8.070;2022-08-25T02:06:26;4.18;;;1.55;;
74342;SDS011;62767;50.300;8.070;2022-08-25T02:08:56;4.40;;;1.45;;
74342;SDS011;62767;50.300;8.070;2022-08-25T02:11:25;2.38;;;1.23;;
74342;SDS011;62767;50.300;8.070;2022-08-25T02:13:52;2.95;;;1.88;;
74342;SDS011;62767;50.300;8.070;2022-08-25T02:16:20;7.40;;;1.67;;
74342;SDS011;62767;50.300;8.070;2022-08-25T02:18:49;4.00;;;1.88;;
74342;SDS011;62767;50.300;8.070;2022-08-25T02:21:15;5.90;;;1.85;;
74342;SDS011;62767;50.300;8.070;2022-08-25T02:23:41;6.78;;;2.42;;
74342;SDS011;62767;50.300;8.070;2022-08-25T02:26:07;4.55;;;1.65;;
74342;SDS011;62767;50.300;8.070;2022-08-25T02:28:34;3.47;;;1.83;;
74342;SDS011;62767;50.300;8.070;2022-08-25T02:31:02;6.32;;;1.83;;
74342;SDS011;62767;50.300;8.070;2022-08-25T02:33:29;4.97;;;2.03;;
74342;SDS011;62767;50.300;8.070;2022-08-25T02:35:58;4.18;;;1.80;;
74342;SDS011;62767;50.300;8.070;2022-08-25T02:38:27;5.10;;;2.03;;
74342;SDS011;62767;50.300;8.070;2022-08-25T02:40:54;8.02;;;2.00;;
74342;SDS011;62767;50.300;8.070;2022-08-25T02:43:20;2.70;;;1.80;;
74342;SDS011;62767;50.300;8.070;2022-08-25T02:45:46;5.38;;;1.85;;
74342;SDS011;62767;50.300;8.070;2022-08-25T02:48:11;4.25;;;1.95;;
74342;SDS011;62767;50.300;8.070;2022-08-25T02:50:37;4.40;;;2.00;;
74342;SDS011;62767;50.300;8.070;2022-08-25T02:53:03;7.47;;;1.80;;
74342;SDS011;62767;50.300;8.070;2022-08-25T02:55:28;2.60;;;1.67;;
74342;SDS011;62767;50.300;8.070;2022-08-25T02:57:54;9.80;;;2.17;;
74342;SDS011;62767;50.300;8.070;2022-08-25T03:00:20;5.97;;;1.88;;
74342;SDS011;62767;50.300;8.070;2022-08-25T03:02:46;2.22;;;1.60;;
74342;SDS011;62767;50.300;8.070;2022-08-25T03:05:12;8.48;;;1.80;;
74342;SDS011;62767;50.300;8.070;2022-08-25T03:07:39;6.53;;;2.03;;
74342;SDS011;62767;50.300;8.070;2022-08-25T03:10:06;5.68;;;1.77;;
74342;SDS011;62767;50.300;8.070;2022-08-25T03:12:37;5.22;;;2.03;;
74342;SDS011;62767;50.300;8.070;2022-08-25T03:15:06;4.38;;;1.98;;
74342;SDS011;62767;50.300;8.070;2022-08-25T03:17:33;3.78;;;1.70;;
74342;SDS011;62767;50.300;8.070;2022-08-25T03:19:59;4.88;;;1.83;;
74342;SDS011;62767;50.300;8.070;2022-08-25T03:22:24;4.22;;;2.35;;
74342;SDS011;62767;50.300;8.070;2022-08-25T03:24:50;3.45;;;1.88;;
74342;SDS011;62767;50.300;8.070;2022-08-25T03:27:16;2.42;;;1.77;;
74342;SDS011;62767;50.300;8.070;2022-08-25T03:29:41;6.28;;;2.40;;
74342;SDS011;62767;50.300;8.070;2022-08-25T03:32:07;4.45;;;2.13;;
74342;SDS011;62767;50.300;8.070;2022-08-25T03:34:33;4.60;;;1.55;;
74342;SDS011;62767;50.300;8.070;2022-08-25T03:36:59;4.85;;;1.92;;
74342;SDS011;62767;50.300;8.070;2022-08-25T03:39:25;5.63;;;2.30;;
74342;SDS011;62767;50.300;8.070;2022-08-25T03:41:51;3.17;;;1.85;;
74342;SDS011;62767;50.300;8.070;2022-08-25T03:44:18;5.53;;;2.10;;
74342;SDS011;62767;50.300;8.070;2022-08-25T03:46:47;3.95;;;2.22;;
74342;SDS011;62767;50.300;8.070;2022-08-25T03:49:16;3.03;;;1.90;;
74342;SDS011;62767;50.300;8.070;2022-08-25T03:51:45;4.22;;;2.15;;
74342;SDS011;62767;50.300;8.070;2022-08-25T03:54:16;3.67;;;2.00;;
74342;SDS011;62767;50.300;8.070;2022-08-25T03:56:47;3.05;;;2.00;;
74342;SDS011;62767;50.300;8.070;2022-08-25T03:59:13;2.75;;;1.92;;
74342;SDS011;62767;50.300;8.070;2022-08-25T04:01:39;4.90;;;2.28;;
74342;SDS011;62767;50.300;8.070;2022-08-25T04:04:07;4.82;;;1.85;;
74342;SDS011;62767;50.300;8.070;2022-08-25T04:06:34;3.63;;;1.73;;
74342;SDS011;62767;50.300;8.070;2022-08-25T04:08:59;2.67;;;1.77;;
74342;SDS011;62767;50.300;8.070;2022-08-25T04:11:26;4.35;;;1.83;;
74342;SDS011;62767;50.300;8.070;2022-08-25T04:16:21;4.18;;;1.95;;
74342;SDS011;62767;50.300;8.070;2022-08-25T04:18:49;4.47;;;1.75;;
74342;SDS011;62767;50.300;8.070;2022-08-25T04:21:17;2.88;;;1.92;;
74342;SDS011;62767;50.300;8.070;2022-08-25T04:23:45;6.15;;;2.00;;
74342;SDS011;62767;50.300;8.070;2022-08-25T04:26:23;8.23;;;2.45;;
74342;SDS011;62767;50.300;8.070;2022-08-25T04:28:51;7.97;;;2.55;;
74342;SDS011;62767;50.300;8.070;2022-08-25T04:31:19;3.95;;;1.85;;
74342;SDS011;62767;50.300;8.070;2022-08-25T04:33:46;4.32;;;2.08;;
74342;SDS011;62767;50.300;8.070;2022-08-25T04:36:12;6.07;;;2.03;;
74342;SDS011;62767;50.300;8.070;2022-08-25T04:38:41;9.98;;;3.17;;
74342;SDS011;62767;50.300;8.070;2022-08-25T04:41:08;4.65;;;2.05;;
74342;SDS011;62767;50.300;8.070;2022-08-25T04:43:35;7.22;;;2.33;;
74342;SDS011;62767;50.300;8.070;2022-08-25T04:46:09;3.60;;;2.03;;
74342;SDS011;62767;50.300;8.070;2022-08-25T04:48:39;4.25;;;2.38;;
74342;SDS011;62767;50.300;8.070;2022-08-25T04:51:06;3.80;;;1.80;;
74342;SDS011;62767;50.300;8.070;2022-08-25T04:53:37;3.50;;;2.00;;
74342;SDS011;62767;50.300;8.070;2022-08-25T04:56:14;3.72;;;2.10;;
74342;SDS011;62767;50.300;8.070;2022-08-25T04:58:41;4.43;;;2.20;;
74342;SDS011;62767;50.300;8.070;2022-08-25T05:01:08;4.20;;;2.20;;
74342;SDS011;62767;50.300;8.070;2022-08-25T05:03:35;4.68;;;2.45;;
74342;SDS011;62767;50.300;8.070;2022-08-25T05:06:03;4.05;;;1.90;;
74342;SDS011;62767;50.300;8.070;2022-08-25T16:11:06;7.45;;;3.22;;
74342;SDS011;62767;50.300;8.070;2022-08-25T16:14:01;9.50;;;3.25;;
74342;SDS011;62767;50.300;8.070;2022-08-25T16:16:47;9.95;;;3.58;;
74342;SDS011;62767;50.300;8.070;2022-08-25T16:19:33;8.85;;;3.65;;
74342;SDS011;62767;50.300;8.070;2022-08-25T16:22:19;5.97;;;3.58;;
74342;SDS011;62767;50.300;8.070;2022-08-25T16:25:05;6.70;;;3.33;;
74342;SDS011;62767;50.300;8.070;2022-08-25T16:27:51;5.13;;;2.83;;
74342;SDS011;62767;50.300;8.070;2022-08-25T16:30:37;6.35;;;3.63;;
74342;SDS011;62767;50.300;8.070;2022-08-25T16:33:26;7.72;;;3.50;;
74342;SDS011;62767;50.300;8.070;2022-08-25T16:37:34;5.80;;;3.50;;
74342;SDS011;62767;50.300;8.070;2022-08-25T16:42:10;5.35;;;3.17;;
74342;SDS011;62767;50.300;8.070;2022-08-25T16:44:36;5.65;;;2.97;;
74342;SDS011;62767;50.300;8.070;2022-08-25T16:47:04;5.00;;;3.03;;
74342;SDS011;62767;50.300;8.070;2022-08-25T16:51:55;5.57;;;3.33;;
74342;SDS011;62767;50.300;8.070;2022-08-25T16:54:21;6.00;;;2.95;;
74342;SDS011;62767;50.300;8.070;2022-08-25T16:57:05;5.75;;;3.30;;
74342;SDS011;62767;50.300;8.070;2022-08-25T16:59:31;5.30;;;2.72;;
74342;SDS011;62767;50.300;8.070;2022-08-25T17:01:56;8.65;;;3.10;;
74342;SDS011;62767;50.300;8.070;2022-08-25T17:04:22;7.55;;;3.20;;
74342;SDS011;62767;50.300;8.070;2022-08-25T17:06:48;5.78;;;3.38;;
74342;SDS011;62767;50.300;8.070;2022-08-25T17:09:14;9.60;;;3.30;;
74342;SDS011;62767;50.300;8.070;2022-08-25T17:11:44;5.93;;;3.28;;
74342;SDS011;62767;50.300;8.070;2022-08-25T17:14:12;5.72;;;3.05;;
74342;SDS011;62767;50.300;8.070;2022-08-25T17:16:40;5.15;;;3.45;;
74342;SDS011;62767;50.300;8.070;2022-08-25T17:21:34;4.57;;;2.90;;
74342;SDS011;62767;50.300;8.070;2022-08-25T17:24:02;4.75;;;3.10;;
74342;SDS011;62767;50.300;8.070;2022-08-25T17:26:28;6.07;;;3.30;;
74342;SDS011;62767;50.300;8.070;2022-08-25T17:28:58;6.85;;;3.30;;
74342;SDS011;62767;50.300;8.070;2022-08-25T17:31:25;10.40;;;3.08;;
74342;SDS011;62767;50.300;8.070;2022-08-25T17:33:52;5.40;;;3.20;;
74342;SDS011;62767;50.300;8.070;2022-08-25T17:36:18;5.00;;;3.30;;
74342;SDS011;62767;50.300;8.070;2022-08-25T17:38:44;4.80;;;3.30;;
74342;SDS011;62767;50.300;8.070;2022-08-25T17:41:10;4.03;;;3.10;;
74342;SDS011;62767;50.300;8.070;2022-08-25T17:43:39;6.43;;;3.25;;
74342;SDS011;62767;50.300;8.070;2022-08-25T17:46:06;5.20;;;3.00;;
74342;SDS011;62767;50.300;8.070;2022-08-25T17:48:33;4.47;;;2.83;;
74342;SDS011;62767;50.300;8.070;2022-08-25T17:51:00;6.25;;;3.00;;
74342;SDS011;62767;50.300;8.070;2022-08-25T17:53:26;5.63;;;2.67;;
74342;SDS011;62767;50.300;8.070;2022-08-25T17:55:56;4.88;;;2.95;;
74342;SDS011;62767;50.300;8.070;2022-08-25T17:58:30;16.00;;;5.20;;
74342;SDS011;62767;50.300;8.070;2022-08-25T18:00:57;8.73;;;3.50;;
74342;SDS011;62767;50.300;8.070;2022-08-25T18:03:23;6.13;;;3.33;;
74342;SDS011;62767;50.300;8.070;2022-08-25T18:05:50;5.88;;;3.83;;
74342;SDS011;62767;50.300;8.070;2022-08-25T18:08:16;6.32;;;3.30;;
74342;SDS011;62767;50.300;8.070;2022-08-25T18:10:44;9.05;;;3.35;;
74342;SDS011;62767;50.300;8.070;2022-08-25T18:13:10;7.93;;;3.50;;
74342;SDS011;62767;50.300;8.070;2022-08-25T18:15:36;6.47;;;3.13;;
74342;SDS011;62767;50.300;8.070;2022-08-25T18:18:04;6.40;;;3.42;;
74342;SDS011;62767;50.300;8.070;2022-08-25T18:20:30;6.13;;;3.72;;
74342;SDS011;62767;50.300;8.070;2022-08-25T18:22:56;5.70;;;3.13;;
74342;SDS011;62767;50.300;8.070;2022-08-25T18:25:22;8.98;;;4.13;;
74342;SDS011;62767;50.300;8.070;2022-08-25T18:27:51;6.45;;;3.15;;
74342;SDS011;62767;50.300;8.070;2022-08-25T18:30:17;6.15;;;3.55;;
74342;SDS011;62767;50.300;8.070;2022-08-25T18:32:43;5.80;;;2.95;;
74342;SDS011;62767;50.300;8.070;2022-08-25T18:35:09;4.60;;;3.13;;
74342;SDS011;62767;50.300;8.070;2022-08-25T18:37:35;6.03;;;4.15;;
74342;SDS011;62767;50.300;8.070;2022-08-25T18:40:19;6.53;;;3.20;;
74342;SDS011;62767;50.300;8.070;2022-08-25T18:42:55;7.05;;;3.58;;
74342;SDS011;62767;50.300;8.070;2022-08-25T18:45:25;4.82;;;2.95;;
74342;SDS011;62767;50.300;8.070;2022-08-25T18:47:53;5.93;;;3.80;;
74342;SDS011;62767;50.300;8.070;2022-08-25T18:50:28;7.25;;;3.65;;
74342;SDS011;62767;50.300;8.070;2022-08-25T18:52:57;6.60;;;3.55;;
74342;SDS011;62767;50.300;8.070;2022-08-25T18:55:25;4.90;;;2.88;;
74342;SDS011;62767;50.300;8.070;2022-08-25T18:57:51;5.78;;;3.50;;
74342;SDS011;62767;50.300;8.070;2022-08-25T19:00:18;9.50;;;3.90;;
74342;SDS011;62767;50.300;8.070;2022-08-25T19:02:47;5.60;;;3.50;;
74342;SDS011;62767;50.300;8.070;2022-08-25T19:05:14;6.43;;;3.40;;
74342;SDS011;62767;50.300;8.070;2022-08-25T19:07:41;6.18;;;3.22;;
74342;SDS011;62767;50.300;8.070;2022-08-25T19:10:06;8.60;;;3.00;;
74342;SDS011;62767;50.300;8.070;2022-08-25T19:12:33;4.78;;;3.30;;
74342;SDS011;62767;50.300;8.070;2022-08-25T19:15:00;5.63;;;3.25;;
74342;SDS011;62767;50.300;8.070;2022-08-25T19:17:26;5.63;;;3.65;;
74342;SDS011;62767;50.300;8.070;2022-08-25T19:19:52;6.25;;;3.58;;
74342;SDS011;62767;50.300;8.070;2022-08-25T19:22:17;4.65;;;3.13;;
74342;SDS011;62767;50.300;8.070;2022-08-25T19:24:43;5.32;;;3.17;;
74342;SDS011;62767;50.300;8.070;2022-08-25T19:27:10;7.88;;;3.17;;
74342;SDS011;62767;50.300;8.070;2022-08-25T19:32:01;9.30;;;3.85;;
74342;SDS011;62767;50.300;8.070;2022-08-25T19:34:30;6.03;;;3.53;;
74342;SDS011;62767;50.300;8.070;2022-08-25T19:36:59;8.10;;;3.40;;
74342;SDS011;62767;50.300;8.070;2022-08-25T19:39:27;6.72;;;3.40;;
74342;SDS011;62767;50.300;8.070;2022-08-25T19:41:54;8.60;;;3.35;;
74342;SDS011;62767;50.300;8.070;2022-08-25T19:44:21;5.40;;;3.05;;
74342;SDS011;62767;50.300;8.070;2022-08-25T19:46:47;6.72;;;3.35;;
74342;SDS011;62767;50.300;8.070;2022-08-25T19:49:17;7.25;;;4.20;;
74342;SDS011;62767;50.300;8.070;2022-08-25T19:51:48;11.40;;;5.38;;
74342;SDS011;62767;50.300;8.070;2022-08-25T19:54:16;10.02;;;3.97;;
74342;SDS011;62767;50.300;8.070;2022-08-25T19:56:46;14.82;;;7.47;;
74342;SDS011;62767;50.300;8.070;2022-08-25T19:59:12;4.45;;;3.33;;
74342;SDS011;62767;50.300;8.070;2022-08-25T20:01:38;8.27;;;3.97;;
74342;SDS011;62767;50.300;8.070;2022-08-25T20:04:04;8.68;;;3.42;;
74342;SDS011;62767;50.300;8.070;2022-08-25T20:06:30;7.63;;;3.35;;
74342;SDS011;62767;50.300;8.070;2022-08-25T20:08:59;9.80;;;4.50;;
74342;SDS011;62767;50.300;8.070;2022-08-25T20:11:26;8.70;;;3.65;;
74342;SDS011;62767;50.300;8.070;2022-08-25T20:13:53;6.22;;;3.92;;
74342;SDS011;62767;50.300;8.070;2022-08-25T20:16:19;9.90;;;4.13;;
74342;SDS011;62767;50.300;8.070;2022-08-25T20:18:45;9.88;;;3.15;;
74342;SDS011;62767;50.300;8.070;2022-08-25T20:21:11;6.97;;;3.28;;
74342;SDS011;62767;50.300;8.070;2022-08-25T20:23:37;6.65;;;3.53;;
74342;SDS011;62767;50.300;8.070;2022-08-25T20:26:21;4.80;;;2.75;;
74342;SDS011;62767;50.300;8.070;2022-08-25T20:28:47;8.85;;;3.40;;
74342;SDS011;62767;50.300;8.070;2022-08-25T20:31:12;5.55;;;3.17;;
74342;SDS011;62767;50.300;8.070;2022-08-25T20:33:38;8.80;;;3.55;;
74342;SDS011;62767;50.300;8.070;2022-08-25T20:36:04;13.60;;;3.78;;
74342;SDS011;62767;50.300;8.070;2022-08-25T20:38:30;12.18;;;3.70;;
74342;SDS011;62767;50.300;8.070;2022-08-25T20:40:57;7.32;;;3.20;;
74342;SDS011;62767;50.300;8.070;2022-08-25T20:43:23;8.30;;;3.45;;
74342;SDS011;62767;50.300;8.070;2022-08-25T20:45:57;6.25;;;2.97;;
74342;SDS011;62767;50.300;8.070;2022-08-25T20:48:26;4.30;;;3.05;;
74342;SDS011;62767;50.300;8.070;2022-08-25T20:50:52;7.90;;;3.22;;
74342;SDS011;62767;50.300;8.070;2022-08-25T20:53:18;6.45;;;2.90;;
74342;SDS011;62767;50.300;8.070;2022-08-25T20:55:44;8.18;;;3.10;;
74342;SDS011;62767;50.300;8.070;2022-08-25T20:58:09;8.88;;;3.30;;
74342;SDS011;62767;50.300;8.070;2022-08-25T21:00:39;6.18;;;3.50;;
74342;SDS011;62767;50.300;8.070;2022-08-25T21:03:06;11.30;;;3.47;;
74342;SDS011;62767;50.300;8.070;2022-08-25T21:05:32;5.63;;;3.17;;
74342;SDS011;62767;50.300;8.070;2022-08-25T21:07:58;9.60;;;3.08;;
74342;SDS011;62767;50.300;8.070;2022-08-25T21:10:24;4.97;;;2.78;;
74342;SDS011;62767;50.300;8.070;2022-08-25T21:12:49;8.55;;;2.92;;
74342;SDS011;62767;50.300;8.070;2022-08-25T21:15:16;7.35;;;3.28;;
74342;SDS011;62767;50.300;8.070;2022-08-25T21:17:42;6.68;;;3.63;;
74342;SDS011;62767;50.300;8.070;2022-08-25T21:20:08;7.85;;;3.40;;
74342;SDS011;62767;50.300;8.070;2022-08-25T21:25:01;7.10;;;2.97;;
74342;SDS011;62767;50.300;8.070;2022-08-25T21:27:28;9.90;;;3.70;;
74342;SDS011;62767;50.300;8.070;2022-08-25T21:29:53;5.90;;;3.25;;
74342;SDS011;62767;50.300;8.070;2022-08-25T21:32:19;6.63;;;3.30;;
74342;SDS011;62767;50.300;8.070;2022-08-25T21:34:49;6.75;;;3.20;;
74342;SDS011;62767;50.300;8.070;2022-08-25T21:37:15;7.93;;;3.53;;
74342;SDS011;62767;50.300;8.070;2022-08-25T21:39:41;5.97;;;3.30;;
74342;SDS011;62767;50.300;8.070;2022-08-25T21:42:07;9.68;;;3.53;;
74342;SDS011;62767;50.300;8.070;2022-08-25T21:44:32;7.28;;;3.03;;
74342;SDS011;62767;50.300;8.070;2022-08-25T21:46:58;8.57;;;3.60;;
74342;SDS011;62767;50.300;8.070;2022-08-25T21:49:25;6.20;;;3.35;;
74342;SDS011;62767;50.300;8.070;2022-08-25T21:51:51;5.22;;;3.00;;
74342;SDS011;62767;50.300;8.070;2022-08-25T21:54:17;5.07;;;3.10;;
74342;SDS011;62767;50.300;8.070;2022-08-25T21:59:23;5.18;;;3.40;;
74342;SDS011;62767;50.300;8.070;2022-08-25T22:01:54;6.13;;;3.60;;
74342;SDS011;62767;50.300;8.070;2022-08-25T22:04:21;7.05;;;3.35;;
74342;SDS011;62767;50.300;8.070;2022-08-25T22:06:47;6.35;;;3.33;;
74342;SDS011;62767;50.300;8.070;2022-08-25T22:09:13;6.90;;;3.47;;
74342;SDS011;62767;50.300;8.070;2022-08-25T22:11:40;5.95;;;3.20;;
74342;SDS011;62767;50.300;8.070;2022-08-25T22:14:07;6.75;;;3.42;;
74342;SDS011;62767;50.300;8.070;2022-08-25T22:16:34;7.15;;;3.08;;
74342;SDS011;62767;50.300;8.070;2022-08-25T22:19:00;5.72;;;3.58;;
74342;SDS011;62767;50.300;8.070;2022-08-25T22:21:27;8.48;;;3.08;;
74342;SDS011;62767;50.300;8.070;2022-08-25T22:26:22;8.07;;;3.30;;
74342;SDS011;62767;50.300;8.070;2022-08-25T22:28:49;5.25;;;3.00;;
74342;SDS011;62767;50.300;8.070;2022-08-25T22:31:15;7.18;;;3.47;;
74342;SDS011;62767;50.300;8.070;2022-08-25T22:33:42;8.82;;;3.22;;
74342;SDS011;62767;50.300;8.070;2022-08-25T22:38:40;6.70;;;3.75;;
74342;SDS011;62767;50.300;8.070;2022-08-25T22:41:06;4.63;;;3.22;;
74342;SDS011;62767;50.300;8.070;2022-08-25T22:43:33;7.47;;;3.25;;
74342;SDS011;62767;50.300;8.070;2022-08-25T22:45:59;7.28;;;3.20;;
74342;SDS011;62767;50.300;8.070;2022-08-25T22:48:27;5.55;;;3.38;;
74342;SDS011;62767;50.300;8.070;2022-08-25T22:50:53;9.30;;;3.47;;
74342;SDS011;62767;50.300;8.070;2022-08-25T22:53:19;12.85;;;3.63;;
74342;SDS011;62767;50.300;8.070;2022-08-25T22:55:45;5.65;;;3.80;;
74342;SDS011;62767;50.300;8.070;2022-08-25T22:58:11;7.65;;;3.80;;
74342;SDS011;62767;50.300;8.070;2022-08-25T23:00:39;6.88;;;3.60;;
74342;SDS011;62767;50.300;8.070;2022-08-25T23:03:05;5.95;;;3.38;;
74342;SDS011;62767;50.300;8.070;2022-08-25T23:05:31;7.00;;;3.45;;
74342;SDS011;62767;50.300;8.070;2022-08-25T23:07:56;8.43;;;3.67;;
74342;SDS011;62767;50.300;8.070;2022-08-25T23:10:22;10.10;;;3.78;;
74342;SDS011;62767;50.300;8.070;2022-08-25T23:12:49;7.68;;;3.50;;
74342;SDS011;62767;50.300;8.070;2022-08-25T23:15:16;5.93;;;3.35;;
74342;SDS011;62767;50.300;8.070;2022-08-25T23:17:41;9.65;;;3.60;;
74342;SDS011;62767;50.300;8.070;2022-08-25T23:20:07;5.25;;;2.83;;
74342;SDS011;62767;50.300;8.070;2022-08-25T23:22:52;7.88;;;3.83;;
74342;SDS011;62767;50.300;8.070;2022-08-25T23:25:18;5.90;;;3.58;;
74342;SDS011;62767;50.300;8.070;2022-08-25T23:27:45;9.10;;;3.60;;
74342;SDS011;62767;50.300;8.070;2022-08-25T23:30:11;9.93;;;4.40;;
74342;SDS011;62767;50.300;8.070;2022-08-25T23:32:37;5.25;;;3.45;;
74342;SDS011;62767;50.300;8.070;2022-08-25T23:35:04;6.55;;;3.63;;
74342;SDS011;62767;50.300;8.070;2022-08-25T23:37:30;6.47;;;3.47;;
74342;SDS011;62767;50.300;8.070;2022-08-25T23:39:55;8.88;;;5.15;;
74342;SDS011;62767;50.300;8.070;2022-08-25T23:42:21;6.35;;;3.55;;
74342;SDS011;62767;50.300;8.070;2022-08-25T23:44:47;8.30;;;3.95;;
74342;SDS011;62767;50.300;8.070;2022-08-25T23:47:14;7.50;;;4.15;;
74342;SDS011;62767;50.300;8.070;2022-08-25T23:49:40;5.75;;;3.33;;
74342;SDS011;62767;50.300;8.070;2022-08-25T23:52:06;8.15;;;3.72;;
74342;SDS011;62767;50.300;8.070;2022-08-25T23:54:32;6.60;;;3.65;;
74342;SDS011;62767;50.300;8.070;2022-08-25T23:56:58;7.35;;;4.03;;
74342;SDS011;62767;50.300;8.070;2022-08-25T23:59:24;6.55;;;3.60;;
